Kansas City, MO

11:54 AM CDT on October 23, 2014 (GMT -0500)
Westheight | Change Station
CLOSE
Current Station
Personal Weather Station
Location: Kansas City, KS
Elevation: 893 ft
Nearby Weather Stations

Elev 893 ft 39.12 °N, 94.65 °W | Updated 4 minutes ago

Mostly Cloudy
Mostly Cloudy
62.2 °F
Feels Like 62.2 °F
N
0.0
Wind Variable Wind from SW
Gusts 0.0 mph

Today
High -- | Low -- °F
--% Chance of Precip.
Yesterday
High -- | Low -- °F
Precip. -- in
7:36 AM 6:28 PM
Waning Crescent, 0% visible
Pressure 30.09 in
Visibility 10.0 miles
Clouds Mostly Cloudy 1800 ft
Dew Point 57 °F
Humidity 83%
Rainfall 0.08 in
Snow Depth Not available.
UV 2 out of 12
Pollen 1.50 out of 12
Ozone Good
PM2.5 Unhealthy for Sensitive Groups
Flu Activity No Activity
METAR KMKC 231554Z 19009KT 10SM BKN018 18/16 A3010 RMK AO2 SLP189 T01830156

More Conditions Fewer Conditions

Pressure 30.09 in
Visibility 10.0 miles
Clouds Mostly Cloudy 1800 ft
Dew Point 57 °F
Humidity 83%
Rainfall 0.08 in
Snow Depth Not available.
UV 2 out of 12
Pollen 1.50 out of 12
Ozone Good
PM2.5 Unhealthy for Sensitive Groups
Flu Activity No Activity
METAR KMKC 231554Z 19009KT 10SM BKN018 18/16 A3010 RMK AO2 SLP189 T01830156

More Conditions Fewer Conditions

10-Day Weather Forecast

Almanac

Astronomy

Oct. 23, 2014 Rise Set
Actual Time 7:36 AM CDT 6:28 PM CDT
Civil Twilight 7:09 AM CDT 6:55 PM CDT
Nautical Twilight 6:37 AM CDT 7:26 PM CDT
Astronomical Twilight 6:06 AM CDT 7:57 PM CDT
Moon 7:16 AM CDT 6:30 PM CDT
Length of Visible Light 11h 46m
Length of Day
10h 52m
Tomorrow will be 2m 21s shorter.
Waning Crescent, 0% of the Moon is Illuminated
Today
Waning Crescent
Oct 23
New
Oct 30
First Quarter
Nov 6
Full
Nov 14
Last Quarter

Today's Extremes

State Highs State Lows

Community

WunderPhotos

Upload Photos

1,764,308 photos uploaded!

WunderBlogs® & News

Nearby

Air Quality

  Air Quality AQ Index Pollutant
Yesterday Moderate
PM2.5
Yesterday Good
OZONE
Current Unhealthy for Sensitive Groups
PM2.5
Current Good
OZONE
Thursday Good
OZONE

Snow Depth

Station Depth Elevation
No new snow has been reported.

Earthquake Activity

City Distance Mag. Time & Date
No recent earthquake activity has been reported nearby.
Minimum magnitude displayed is 2.5.

Coastal Water Temperatures

Place Temperature
No Stations Reporting

Nearby Weather Stations